createdAt,value
2023-03-26T00:03:33.550Z,19.10
2023-03-26T00:08:30.251Z,23.70
2023-03-26T00:13:27.158Z,21.33
2023-03-26T00:18:30.752Z,17.33
2023-03-26T00:23:28.753Z,11.50
2023-03-26T00:28:26.179Z,18.83
2023-03-26T00:33:22.737Z,11.65
2023-03-26T00:38:20.452Z,18.20
2023-03-26T00:43:21.321Z,17.52
2023-03-26T00:48:18.099Z,18.23
2023-03-26T00:53:16.084Z,18.02
2023-03-26T00:58:13.765Z,17.00
2023-03-26T01:03:21.890Z,22.73
2023-03-26T01:08:44.850Z,21.08
2023-03-26T01:13:46.660Z,15.75
2023-03-26T01:18:42.987Z,10.17
2023-03-26T01:23:51.133Z,12.65
2023-03-26T01:28:48.558Z,16.65
2023-03-26T01:33:57.757Z,9.75
2023-03-26T01:39:49.013Z,8.77
2023-03-26T01:44:56.375Z,8.85
2023-03-26T01:49:52.798Z,6.22
2023-03-26T01:54:50.183Z,12.38
2023-03-26T01:59:59.762Z,10.55
2023-03-26T02:05:17.145Z,15.63
2023-03-26T02:10:26.044Z,19.77
2023-03-26T02:15:22.909Z,19.25
2023-03-26T02:20:20.599Z,14.60
2023-03-26T02:25:19.569Z,14.57
2023-03-26T02:30:20.502Z,14.63
2023-03-26T02:35:17.022Z,19.30
2023-03-26T02:40:14.035Z,15.65
2023-03-26T02:45:10.438Z,15.40
2023-03-26T02:50:08.890Z,10.50
2023-03-26T02:55:05.598Z,15.02
2023-03-26T03:00:05.873Z,14.70
2023-03-26T03:05:02.615Z,9.93
2023-03-26T03:10:02.308Z,11.40
2023-03-26T03:14:58.750Z,11.20
2023-03-26T03:19:55.349Z,8.73
2023-03-26T03:24:57.604Z,8.60
2023-03-26T03:29:55.668Z,11.55
2023-03-26T03:34:52.121Z,11.77
2023-03-26T03:39:48.698Z,17.85
2023-03-26T03:44:45.255Z,10.45
2023-03-26T03:49:41.760Z,17.52
2023-03-26T03:54:38.147Z,17.98
2023-03-26T03:59:34.572Z,17.88
2023-03-26T04:04:32.638Z,16.73
2023-03-26T04:09:29.158Z,10.27
2023-03-26T04:14:25.650Z,20.73
2023-03-26T04:19:22.378Z,15.07
2023-03-26T04:24:19.577Z,22.42
2023-03-26T04:29:16.924Z,13.30
2023-03-26T04:34:24.180Z,11.07
2023-03-26T04:39:29.323Z,12.43
2023-03-26T04:44:25.947Z,13.77
2023-03-26T04:49:22.444Z,10.23
2023-03-26T04:54:22.696Z,12.50
2023-03-26T04:59:26.345Z,10.40
2023-03-26T05:04:22.810Z,10.52
2023-03-26T05:09:19.875Z,14.68
2023-03-26T05:14:16.639Z,18.42
2023-03-26T05:19:13.202Z,10.63
2023-03-26T05:24:09.621Z,15.75
2023-03-26T05:29:06.030Z,7.57
2023-03-26T05:34:03.116Z,11.13
2023-03-26T05:38:59.508Z,12.27
2023-03-26T05:43:56.062Z,9.45
2023-03-26T05:48:52.640Z,10.70
2023-03-26T05:53:49.219Z,11.98
2023-03-26T05:58:45.729Z,10.10
2023-03-26T06:03:44.428Z,15.13
2023-03-26T06:09:02.151Z,10.07
2023-03-26T06:14:00.223Z,9.10
2023-03-26T06:18:57.537Z,15.88
2023-03-26T06:23:54.677Z,13.27
2023-03-26T06:28:51.645Z,9.43
2023-03-26T06:33:48.663Z,12.82
2023-03-26T06:38:45.159Z,12.25
2023-03-26T06:43:41.597Z,18.50
2023-03-26T06:48:38.727Z,11.98
2023-03-26T06:53:35.642Z,13.82
2023-03-26T06:58:32.126Z,22.85
2023-03-26T07:03:28.571Z,19.52
2023-03-26T07:08:26.410Z,13.13
2023-03-26T07:13:22.992Z,11.75
2023-03-26T07:18:19.394Z,11.82
2023-03-26T07:23:20.058Z,12.38
2023-03-26T07:28:42.102Z,25.98
2023-03-26T07:34:14.066Z,10.25
2023-03-26T07:39:47.998Z,15.25
2023-03-26T07:50:17.703Z,19.57
2023-03-26T07:55:17.287Z,19.02
2023-03-26T08:00:39.819Z,16.27
2023-03-26T08:05:59.793Z,15.43
2023-03-26T08:11:34.862Z,17.02
2023-03-26T08:16:40.756Z,12.68
2023-03-26T08:22:26.392Z,19.70
2023-03-26T08:27:39.172Z,18.63
2023-03-26T08:32:36.391Z,12.80
2023-03-26T08:37:32.901Z,17.35
2023-03-26T08:42:59.752Z,16.73
2023-03-26T08:48:41.395Z,20.60
2023-03-26T08:53:56.694Z,10.57
2023-03-26T08:58:58.821Z,24.60
2023-03-26T09:04:25.455Z,15.52
2023-03-26T09:09:43.358Z,15.45
2023-03-26T09:15:01.073Z,16.83
2023-03-26T09:20:22.584Z,18.80
2023-03-26T09:25:41.510Z,18.00
2023-03-26T09:30:56.565Z,17.13
2023-03-26T09:36:03.699Z,23.25
2023-03-26T09:41:38.344Z,13.75
2023-03-26T09:46:52.246Z,13.07
2023-03-26T09:52:15.969Z,11.73
2023-03-26T09:57:15.331Z,19.05
2023-03-26T10:02:46.246Z,16.83
2023-03-26T10:08:00.329Z,14.20
2023-03-26T10:13:17.400Z,14.20
2023-03-26T10:18:30.223Z,11.43
2023-03-26T10:23:29.980Z,18.08
2023-03-26T10:28:42.244Z,21.52
2023-03-26T10:34:11.006Z,17.83
2023-03-26T10:39:48.255Z,12.43
2023-03-26T10:45:30.802Z,16.23
2023-03-26T10:50:46.139Z,17.90
2023-03-26T10:55:52.123Z,21.30
2023-03-26T11:00:56.602Z,20.65
2023-03-26T11:05:59.198Z,20.65
2023-03-26T11:10:59.879Z,16.67
2023-03-26T11:16:09.773Z,16.35
2023-03-26T11:21:18.634Z,16.70
2023-03-26T11:26:28.199Z,15.00
2023-03-26T11:31:37.905Z,12.80
2023-03-26T11:36:40.676Z,15.63
2023-03-26T11:41:37.205Z,18.58
2023-03-26T11:46:39.758Z,17.77
2023-03-26T11:51:38.046Z,13.32
2023-03-26T11:57:06.089Z,16.20
2023-03-26T12:02:05.920Z,12.35
2023-03-26T12:07:31.838Z,14.18
2023-03-26T12:12:39.132Z,18.17
2023-03-26T12:17:38.016Z,14.40
2023-03-26T12:22:37.271Z,11.18
2023-03-26T12:27:34.039Z,12.43
2023-03-26T12:32:45.193Z,12.80
2023-03-26T12:37:44.463Z,14.80
2023-03-26T12:44:46.258Z,16.35
2023-03-26T12:48:03.803Z,12.15
2023-03-26T12:58:38.067Z,17.52
2023-03-26T13:03:34.591Z,12.15
2023-03-26T13:08:46.591Z,9.75
2023-03-26T13:13:56.355Z,9.60
2023-03-26T13:18:58.502Z,14.43
2023-03-26T13:24:15.261Z,13.00
2023-03-26T13:29:35.934Z,12.13
2023-03-26T13:34:53.688Z,13.45
2023-03-26T13:39:57.606Z,11.45
2023-03-26T13:45:04.913Z,14.02
2023-03-26T13:50:14.233Z,9.38
2023-03-26T13:55:19.001Z,9.73
2023-03-26T14:00:21.706Z,17.52
2023-03-26T14:05:25.962Z,14.23
2023-03-26T14:10:27.939Z,7.82
2023-03-26T14:15:32.814Z,14.23
2023-03-26T14:20:56.307Z,12.13
2023-03-26T14:26:30.570Z,6.20
2023-03-26T14:31:33.000Z,11.68
2023-03-26T14:41:51.693Z,8.88
2023-03-26T14:46:50.900Z,15.40
2023-03-26T14:52:13.770Z,11.40
2023-03-26T14:57:32.918Z,11.73
2023-03-26T15:03:07.892Z,13.30
2023-03-26T15:08:35.312Z,16.33
2023-03-26T15:13:54.605Z,17.83
2023-03-26T15:19:26.125Z,16.08
2023-03-26T15:24:44.826Z,11.13
2023-03-26T15:30:15.409Z,14.13
2023-03-26T15:35:30.554Z,11.52
2023-03-26T15:40:51.588Z,14.10
2023-03-26T15:45:57.338Z,17.00
2023-03-26T15:51:06.322Z,15.05
2023-03-26T15:56:40.186Z,11.48
2023-03-26T16:07:38.275Z,10.73
2023-03-26T16:13:16.433Z,11.18
2023-03-26T16:18:16.825Z,14.65
2023-03-26T16:23:47.715Z,10.68
2023-03-26T16:28:44.654Z,14.45
2023-03-26T16:33:59.921Z,12.30
2023-03-26T16:38:59.133Z,13.98
2023-03-26T16:44:13.583Z,9.88
2023-03-26T16:49:13.315Z,10.85
2023-03-26T16:54:22.634Z,10.88
2023-03-26T17:00:08.215Z,12.05
2023-03-26T17:05:19.204Z,12.70
2023-03-26T17:10:56.349Z,10.60
2023-03-26T17:16:01.137Z,10.60
2023-03-26T17:20:59.497Z,9.90
2023-03-26T17:26:21.873Z,11.50
2023-03-26T17:31:41.061Z,7.40
2023-03-26T17:36:41.667Z,14.02
2023-03-26T17:41:55.250Z,9.93
2023-03-26T17:46:55.493Z,11.60
2023-03-26T17:52:17.950Z,9.35
2023-03-26T17:57:21.494Z,15.43
2023-03-26T18:02:27.766Z,10.68
2023-03-26T18:07:46.130Z,9.55
2023-03-26T18:12:51.879Z,8.07
2023-03-26T18:17:48.789Z,6.57
2023-03-26T18:22:46.260Z,6.85
2023-03-26T18:27:42.848Z,8.45
2023-03-26T18:32:50.855Z,9.13
2023-03-26T18:37:50.724Z,9.07
2023-03-26T18:42:58.396Z,7.70
2023-03-26T18:47:58.312Z,14.15
2023-03-26T18:52:59.031Z,6.20
2023-03-26T18:57:56.631Z,8.55
2023-03-26T19:03:24.079Z,7.75
2023-03-26T19:08:23.685Z,6.35
2023-03-26T19:13:20.900Z,9.15
2023-03-26T19:18:20.417Z,4.50
2023-03-26T19:23:28.508Z,6.72
2023-03-26T19:28:36.486Z,5.00
2023-03-26T19:33:36.851Z,4.20
2023-03-26T19:38:51.815Z,5.85
2023-03-26T19:43:57.928Z,5.10
2023-03-26T19:48:56.801Z,5.38
2023-03-26T19:53:58.170Z,5.30
2023-03-26T19:58:56.068Z,4.82
2023-03-26T20:03:58.222Z,4.45
2023-03-26T20:08:55.366Z,4.32
2023-03-26T20:13:52.500Z,7.68
2023-03-26T20:18:50.649Z,5.43
2023-03-26T20:23:47.206Z,4.18
2023-03-26T20:28:48.349Z,6.28
2023-03-26T20:33:46.204Z,6.57
2023-03-26T20:38:44.050Z,8.57
2023-03-26T20:43:43.505Z,4.85
2023-03-26T20:48:39.923Z,4.10
2023-03-26T20:53:37.159Z,7.15
2023-03-26T20:58:33.711Z,4.78
2023-03-26T21:03:30.290Z,6.13
2023-03-26T21:08:30.155Z,6.82
2023-03-26T21:13:40.037Z,7.22
2023-03-26T21:18:36.819Z,6.13
2023-03-26T21:23:44.811Z,7.70
2023-03-26T21:28:49.183Z,5.45
2023-03-26T21:33:47.772Z,9.38
2023-03-26T21:38:44.892Z,6.18
2023-03-26T21:43:41.313Z,10.50
2023-03-26T21:48:38.034Z,5.63
2023-03-26T21:53:35.254Z,6.80
2023-03-26T21:58:44.916Z,6.40
2023-03-26T22:03:54.859Z,8.98
2023-03-26T22:08:51.340Z,6.85
2023-03-26T22:13:48.028Z,6.53
2023-03-26T22:18:44.447Z,6.55
2023-03-26T22:23:40.837Z,4.68
2023-03-26T22:28:37.243Z,3.97
2023-03-26T22:33:35.990Z,8.48
2023-03-26T22:38:32.676Z,6.38
2023-03-26T22:43:29.235Z,9.77
2023-03-26T22:48:26.060Z,7.28
2023-03-26T22:53:23.577Z,9.43
2023-03-26T22:58:20.050Z,7.38
2023-03-26T23:03:16.434Z,5.50
2023-03-26T23:08:12.992Z,8.73
2023-03-26T23:13:09.523Z,8.65
2023-03-26T23:18:06.809Z,8.02
2023-03-26T23:23:03.547Z,6.25
2023-03-26T23:28:00.435Z,14.80
2023-03-26T23:32:57.221Z,7.38
2023-03-26T23:37:53.920Z,10.65
2023-03-26T23:42:50.397Z,12.40
2023-03-26T23:47:46.946Z,5.68
2023-03-26T23:52:45.344Z,11.07
2023-03-26T23:57:43.085Z,7.22
